sensor_id;sensor_type;location;lat;lon;timestamp;P1;durP1;ratioP1;P2;durP2;ratioP2
7539;SDS011;3811;49.006;12.076;2023-01-28T00:04:11;7.50;;;4.93;;
7539;SDS011;3811;49.006;12.076;2023-01-28T00:06:38;6.20;;;4.80;;
7539;SDS011;3811;49.006;12.076;2023-01-28T00:09:06;5.53;;;4.67;;
7539;SDS011;3811;49.006;12.076;2023-01-28T00:11:33;10.33;;;5.17;;
7539;SDS011;3811;49.006;12.076;2023-01-28T00:14:00;6.33;;;4.10;;
7539;SDS011;3811;49.006;12.076;2023-01-28T00:16:29;6.90;;;5.07;;
7539;SDS011;3811;49.006;12.076;2023-01-28T00:18:56;6.77;;;4.70;;
7539;SDS011;3811;49.006;12.076;2023-01-28T00:21:24;9.70;;;5.40;;
7539;SDS011;3811;49.006;12.076;2023-01-28T00:23:52;7.83;;;4.73;;
7539;SDS011;3811;49.006;12.076;2023-01-28T00:26:20;8.70;;;4.97;;
7539;SDS011;3811;49.006;12.076;2023-01-28T00:28:49;6.67;;;4.97;;
7539;SDS011;3811;49.006;12.076;2023-01-28T00:31:17;8.10;;;4.90;;
7539;SDS011;3811;49.006;12.076;2023-01-28T00:33:46;6.90;;;5.17;;
7539;SDS011;3811;49.006;12.076;2023-01-28T00:36:14;8.00;;;4.77;;
7539;SDS011;3811;49.006;12.076;2023-01-28T00:38:47;8.93;;;5.73;;
7539;SDS011;3811;49.006;12.076;2023-01-28T00:41:16;10.70;;;5.73;;
7539;SDS011;3811;49.006;12.076;2023-01-28T00:43:46;9.47;;;5.70;;
7539;SDS011;3811;49.006;12.076;2023-01-28T00:46:13;7.73;;;5.20;;
7539;SDS011;3811;49.006;12.076;2023-01-28T00:48:41;9.30;;;6.00;;
7539;SDS011;3811;49.006;12.076;2023-01-28T00:51:11;7.93;;;5.60;;
7539;SDS011;3811;49.006;12.076;2023-01-28T00:53:38;12.13;;;5.83;;
7539;SDS011;3811;49.006;12.076;2023-01-28T00:56:07;7.60;;;6.00;;
7539;SDS011;3811;49.006;12.076;2023-01-28T00:58:35;10.87;;;6.20;;
7539;SDS011;3811;49.006;12.076;2023-01-28T01:01:07;7.87;;;5.73;;
7539;SDS011;3811;49.006;12.076;2023-01-28T01:03:35;10.30;;;6.23;;
7539;SDS011;3811;49.006;12.076;2023-01-28T01:06:02;11.37;;;6.20;;
7539;SDS011;3811;49.006;12.076;2023-01-28T01:08:30;8.90;;;6.13;;
7539;SDS011;3811;49.006;12.076;2023-01-28T01:11:00;10.83;;;6.27;;
7539;SDS011;3811;49.006;12.076;2023-01-28T01:13:31;9.70;;;6.50;;
7539;SDS011;3811;49.006;12.076;2023-01-28T01:16:01;7.77;;;5.77;;
7539;SDS011;3811;49.006;12.076;2023-01-28T01:18:28;9.90;;;6.17;;
7539;SDS011;3811;49.006;12.076;2023-01-28T01:20:56;8.03;;;5.77;;
7539;SDS011;3811;49.006;12.076;2023-01-28T01:23:24;10.07;;;5.60;;
7539;SDS011;3811;49.006;12.076;2023-01-28T01:25:51;6.90;;;5.17;;
7539;SDS011;3811;49.006;12.076;2023-01-28T01:28:19;10.10;;;5.60;;
7539;SDS011;3811;49.006;12.076;2023-01-28T01:30:48;8.70;;;5.93;;
7539;SDS011;3811;49.006;12.076;2023-01-28T01:33:16;7.90;;;5.40;;
7539;SDS011;3811;49.006;12.076;2023-01-28T01:35:43;10.37;;;6.23;;
7539;SDS011;3811;49.006;12.076;2023-01-28T01:38:10;8.93;;;5.77;;
7539;SDS011;3811;49.006;12.076;2023-01-28T01:40:37;9.70;;;5.87;;
7539;SDS011;3811;49.006;12.076;2023-01-28T01:43:12;9.70;;;5.70;;
7539;SDS011;3811;49.006;12.076;2023-01-28T01:45:41;10.33;;;6.47;;
7539;SDS011;3811;49.006;12.076;2023-01-28T01:48:12;10.20;;;6.17;;
7539;SDS011;3811;49.006;12.076;2023-01-28T01:50:46;7.57;;;5.83;;
7539;SDS011;3811;49.006;12.076;2023-01-28T01:53:15;10.30;;;6.60;;
7539;SDS011;3811;49.006;12.076;2023-01-28T01:55:45;9.73;;;6.23;;
7539;SDS011;3811;49.006;12.076;2023-01-28T01:58:15;10.67;;;6.70;;
7539;SDS011;3811;49.006;12.076;2023-01-28T02:00:45;10.07;;;6.03;;
7539;SDS011;3811;49.006;12.076;2023-01-28T02:03:14;9.17;;;5.70;;
7539;SDS011;3811;49.006;12.076;2023-01-28T02:05:43;12.80;;;6.67;;
7539;SDS011;3811;49.006;12.076;2023-01-28T02:08:10;10.93;;;6.77;;
7539;SDS011;3811;49.006;12.076;2023-01-28T02:10:47;9.77;;;6.27;;
7539;SDS011;3811;49.006;12.076;2023-01-28T02:13:15;10.57;;;6.17;;
7539;SDS011;3811;49.006;12.076;2023-01-28T02:15:44;13.90;;;6.43;;
7539;SDS011;3811;49.006;12.076;2023-01-28T02:18:12;11.10;;;6.13;;
7539;SDS011;3811;49.006;12.076;2023-01-28T02:20:45;9.97;;;6.30;;
7539;SDS011;3811;49.006;12.076;2023-01-28T02:23:26;7.80;;;4.97;;
7539;SDS011;3811;49.006;12.076;2023-01-28T02:26:12;9.43;;;6.20;;
7539;SDS011;3811;49.006;12.076;2023-01-28T02:28:43;7.93;;;5.67;;
7539;SDS011;3811;49.006;12.076;2023-01-28T02:31:14;11.43;;;5.57;;
7539;SDS011;3811;49.006;12.076;2023-01-28T02:33:47;10.57;;;5.97;;
7539;SDS011;3811;49.006;12.076;2023-01-28T02:36:22;8.17;;;5.67;;
7539;SDS011;3811;49.006;12.076;2023-01-28T02:38:54;8.97;;;6.33;;
7539;SDS011;3811;49.006;12.076;2023-01-28T02:41:25;8.80;;;5.77;;
7539;SDS011;3811;49.006;12.076;2023-01-28T02:43:56;7.90;;;5.70;;
7539;SDS011;3811;49.006;12.076;2023-01-28T02:46:32;10.63;;;6.33;;
7539;SDS011;3811;49.006;12.076;2023-01-28T02:49:35;12.93;;;6.97;;
7539;SDS011;3811;49.006;12.076;2023-01-28T02:52:12;10.77;;;5.87;;
7539;SDS011;3811;49.006;12.076;2023-01-28T02:54:47;10.23;;;6.60;;
7539;SDS011;3811;49.006;12.076;2023-01-28T02:57:25;8.83;;;5.90;;
7539;SDS011;3811;49.006;12.076;2023-01-28T02:59:56;8.60;;;6.27;;
7539;SDS011;3811;49.006;12.076;2023-01-28T03:02:27;8.63;;;6.17;;
7539;SDS011;3811;49.006;12.076;2023-01-28T03:04:56;10.57;;;7.07;;
7539;SDS011;3811;49.006;12.076;2023-01-28T03:07:26;11.97;;;6.53;;
7539;SDS011;3811;49.006;12.076;2023-01-28T03:09:56;10.37;;;6.67;;
7539;SDS011;3811;49.006;12.076;2023-01-28T03:12:24;12.47;;;6.50;;
7539;SDS011;3811;49.006;12.076;2023-01-28T03:15:12;9.93;;;6.50;;
7539;SDS011;3811;49.006;12.076;2023-01-28T03:18:00;12.43;;;7.33;;
7539;SDS011;3811;49.006;12.076;2023-01-28T03:20:49;11.17;;;6.07;;
7539;SDS011;3811;49.006;12.076;2023-01-28T03:23:36;10.00;;;6.10;;
7539;SDS011;3811;49.006;12.076;2023-01-28T03:26:22;11.17;;;7.43;;
7539;SDS011;3811;49.006;12.076;2023-01-28T03:29:09;12.70;;;7.57;;
7539;SDS011;3811;49.006;12.076;2023-01-28T03:31:59;10.30;;;6.53;;
7539;SDS011;3811;49.006;12.076;2023-01-28T03:34:45;15.97;;;7.40;;
7539;SDS011;3811;49.006;12.076;2023-01-28T03:37:30;10.77;;;7.87;;
7539;SDS011;3811;49.006;12.076;2023-01-28T03:40:10;12.43;;;7.63;;
7539;SDS011;3811;49.006;12.076;2023-01-28T03:42:38;11.37;;;7.80;;
7539;SDS011;3811;49.006;12.076;2023-01-28T03:45:19;13.23;;;7.90;;
7539;SDS011;3811;49.006;12.076;2023-01-28T03:47:48;12.63;;;8.00;;
7539;SDS011;3811;49.006;12.076;2023-01-28T03:50:16;12.87;;;7.47;;
7539;SDS011;3811;49.006;12.076;2023-01-28T03:53:03;11.10;;;7.60;;
7539;SDS011;3811;49.006;12.076;2023-01-28T03:55:45;13.43;;;7.57;;
7539;SDS011;3811;49.006;12.076;2023-01-28T03:58:13;11.27;;;7.37;;
7539;SDS011;3811;49.006;12.076;2023-01-28T04:00:40;15.20;;;7.23;;
7539;SDS011;3811;49.006;12.076;2023-01-28T04:03:11;11.87;;;7.40;;
7539;SDS011;3811;49.006;12.076;2023-01-28T04:05:44;11.40;;;7.53;;
7539;SDS011;3811;49.006;12.076;2023-01-28T04:08:13;11.87;;;7.67;;
7539;SDS011;3811;49.006;12.076;2023-01-28T04:10:55;12.87;;;7.87;;
7539;SDS011;3811;49.006;12.076;2023-01-28T04:13:27;12.20;;;7.10;;
7539;SDS011;3811;49.006;12.076;2023-01-28T04:15:54;11.63;;;7.23;;
7539;SDS011;3811;49.006;12.076;2023-01-28T04:18:23;11.00;;;6.90;;
7539;SDS011;3811;49.006;12.076;2023-01-28T04:20:53;10.00;;;6.70;;
7539;SDS011;3811;49.006;12.076;2023-01-28T04:23:21;10.47;;;7.23;;
7539;SDS011;3811;49.006;12.076;2023-01-28T04:25:48;9.23;;;6.87;;
7539;SDS011;3811;49.006;12.076;2023-01-28T04:28:16;10.77;;;6.93;;
7539;SDS011;3811;49.006;12.076;2023-01-28T04:30:43;11.43;;;7.20;;
7539;SDS011;3811;49.006;12.076;2023-01-28T04:33:30;9.90;;;7.63;;
7539;SDS011;3811;49.006;12.076;2023-01-28T04:36:02;16.00;;;8.47;;
7539;SDS011;3811;49.006;12.076;2023-01-28T04:38:39;13.00;;;8.43;;
7539;SDS011;3811;49.006;12.076;2023-01-28T04:41:19;11.60;;;7.33;;
7539;SDS011;3811;49.006;12.076;2023-01-28T04:43:46;12.03;;;7.97;;
7539;SDS011;3811;49.006;12.076;2023-01-28T04:46:26;14.10;;;8.20;;
7539;SDS011;3811;49.006;12.076;2023-01-28T04:49:01;10.07;;;7.67;;
7539;SDS011;3811;49.006;12.076;2023-01-28T04:51:47;13.93;;;8.07;;
7539;SDS011;3811;49.006;12.076;2023-01-28T04:54:17;15.17;;;7.87;;
7539;SDS011;3811;49.006;12.076;2023-01-28T04:56:44;14.47;;;8.23;;
7539;SDS011;3811;49.006;12.076;2023-01-28T04:59:12;12.60;;;8.43;;
7539;SDS011;3811;49.006;12.076;2023-01-28T05:01:39;12.67;;;8.07;;
7539;SDS011;3811;49.006;12.076;2023-01-28T05:04:08;13.80;;;7.77;;
7539;SDS011;3811;49.006;12.076;2023-01-28T05:06:37;11.37;;;7.43;;
7539;SDS011;3811;49.006;12.076;2023-01-28T05:09:14;14.03;;;8.60;;
7539;SDS011;3811;49.006;12.076;2023-01-28T05:11:42;13.30;;;7.77;;
7539;SDS011;3811;49.006;12.076;2023-01-28T05:14:09;12.47;;;7.03;;
7539;SDS011;3811;49.006;12.076;2023-01-28T05:16:43;16.23;;;9.00;;
7539;SDS011;3811;49.006;12.076;2023-01-28T05:19:12;13.90;;;7.43;;
7539;SDS011;3811;49.006;12.076;2023-01-28T05:21:41;13.50;;;8.13;;
7539;SDS011;3811;49.006;12.076;2023-01-28T05:24:31;14.70;;;8.30;;
7539;SDS011;3811;49.006;12.076;2023-01-28T05:26:59;13.27;;;8.40;;
7539;SDS011;3811;49.006;12.076;2023-01-28T05:29:26;12.93;;;8.03;;
7539;SDS011;3811;49.006;12.076;2023-01-28T05:31:53;14.93;;;8.23;;
7539;SDS011;3811;49.006;12.076;2023-01-28T05:34:22;11.43;;;7.87;;
7539;SDS011;3811;49.006;12.076;2023-01-28T05:36:50;12.77;;;7.70;;
7539;SDS011;3811;49.006;12.076;2023-01-28T05:39:27;12.73;;;8.20;;
7539;SDS011;3811;49.006;12.076;2023-01-28T05:41:55;12.73;;;7.67;;
7539;SDS011;3811;49.006;12.076;2023-01-28T05:44:23;10.97;;;7.27;;
7539;SDS011;3811;49.006;12.076;2023-01-28T05:47:25;11.83;;;7.30;;
7539;SDS011;3811;49.006;12.076;2023-01-28T05:50:02;14.97;;;8.63;;
7539;SDS011;3811;49.006;12.076;2023-01-28T05:52:29;15.10;;;8.17;;
7539;SDS011;3811;49.006;12.076;2023-01-28T05:54:57;13.07;;;8.10;;
7539;SDS011;3811;49.006;12.076;2023-01-28T05:57:25;14.00;;;7.87;;
7539;SDS011;3811;49.006;12.076;2023-01-28T05:59:52;13.60;;;8.80;;
7539;SDS011;3811;49.006;12.076;2023-01-28T06:02:20;13.20;;;8.53;;
7539;SDS011;3811;49.006;12.076;2023-01-28T06:04:51;14.10;;;8.30;;
7539;SDS011;3811;49.006;12.076;2023-01-28T06:07:19;13.73;;;8.77;;
7539;SDS011;3811;49.006;12.076;2023-01-28T06:09:48;12.23;;;7.90;;
7539;SDS011;3811;49.006;12.076;2023-01-28T06:12:18;11.57;;;7.67;;
7539;SDS011;3811;49.006;12.076;2023-01-28T06:15:07;13.53;;;8.23;;
7539;SDS011;3811;49.006;12.076;2023-01-28T06:17:49;13.73;;;7.73;;
7539;SDS011;3811;49.006;12.076;2023-01-28T06:20:28;14.73;;;8.37;;
7539;SDS011;3811;49.006;12.076;2023-01-28T06:22:58;13.17;;;8.37;;
7539;SDS011;3811;49.006;12.076;2023-01-28T06:25:25;14.10;;;7.67;;
7539;SDS011;3811;49.006;12.076;2023-01-28T06:27:53;14.23;;;8.53;;
7539;SDS011;3811;49.006;12.076;2023-01-28T06:30:20;12.77;;;7.40;;
7539;SDS011;3811;49.006;12.076;2023-01-28T06:32:52;12.27;;;7.30;;
7539;SDS011;3811;49.006;12.076;2023-01-28T06:35:20;12.57;;;7.87;;
7539;SDS011;3811;49.006;12.076;2023-01-28T06:37:47;11.83;;;8.13;;
7539;SDS011;3811;49.006;12.076;2023-01-28T06:40:16;11.17;;;7.00;;
7539;SDS011;3811;49.006;12.076;2023-01-28T06:42:43;17.37;;;7.60;;
7539;SDS011;3811;49.006;12.076;2023-01-28T06:45:11;11.27;;;7.07;;
7539;SDS011;3811;49.006;12.076;2023-01-28T06:47:38;12.80;;;7.83;;
7539;SDS011;3811;49.006;12.076;2023-01-28T06:50:05;15.47;;;7.50;;
7539;SDS011;3811;49.006;12.076;2023-01-28T06:52:33;13.17;;;7.97;;
7539;SDS011;3811;49.006;12.076;2023-01-28T06:55:00;11.17;;;7.43;;
7539;SDS011;3811;49.006;12.076;2023-01-28T06:57:28;15.67;;;8.70;;
7539;SDS011;3811;49.006;12.076;2023-01-28T06:59:56;11.83;;;7.83;;
7539;SDS011;3811;49.006;12.076;2023-01-28T07:02:23;13.30;;;7.70;;
7539;SDS011;3811;49.006;12.076;2023-01-28T07:04:50;13.33;;;7.80;;
7539;SDS011;3811;49.006;12.076;2023-01-28T07:07:18;9.87;;;6.93;;
7539;SDS011;3811;49.006;12.076;2023-01-28T07:09:45;11.77;;;7.33;;
7539;SDS011;3811;49.006;12.076;2023-01-28T07:12:12;11.33;;;7.33;;
7539;SDS011;3811;49.006;12.076;2023-01-28T07:14:41;12.83;;;7.70;;
7539;SDS011;3811;49.006;12.076;2023-01-28T07:17:08;12.87;;;7.30;;
7539;SDS011;3811;49.006;12.076;2023-01-28T07:19:36;13.13;;;7.77;;
7539;SDS011;3811;49.006;12.076;2023-01-28T07:22:03;10.43;;;7.60;;
7539;SDS011;3811;49.006;12.076;2023-01-28T07:24:30;12.03;;;7.70;;
7539;SDS011;3811;49.006;12.076;2023-01-28T07:26:58;12.00;;;7.60;;
7539;SDS011;3811;49.006;12.076;2023-01-28T07:29:25;13.03;;;7.50;;
7539;SDS011;3811;49.006;12.076;2023-01-28T07:31:54;12.37;;;6.97;;
7539;SDS011;3811;49.006;12.076;2023-01-28T07:34:21;12.77;;;6.77;;
7539;SDS011;3811;49.006;12.076;2023-01-28T07:36:50;11.50;;;7.07;;
7539;SDS011;3811;49.006;12.076;2023-01-28T07:39:17;10.90;;;7.63;;
7539;SDS011;3811;49.006;12.076;2023-01-28T07:41:44;11.67;;;7.57;;
7539;SDS011;3811;49.006;12.076;2023-01-28T07:44:29;11.03;;;7.20;;
7539;SDS011;3811;49.006;12.076;2023-01-28T07:46:57;10.63;;;7.40;;
7539;SDS011;3811;49.006;12.076;2023-01-28T07:49:26;11.50;;;7.13;;
7539;SDS011;3811;49.006;12.076;2023-01-28T07:51:53;10.47;;;7.43;;
7539;SDS011;3811;49.006;12.076;2023-01-28T07:54:20;12.10;;;8.57;;
7539;SDS011;3811;49.006;12.076;2023-01-28T07:56:48;11.37;;;7.63;;
7539;SDS011;3811;49.006;12.076;2023-01-28T07:59:15;13.33;;;7.93;;
7539;SDS011;3811;49.006;12.076;2023-01-28T08:01:42;12.43;;;8.13;;
7539;SDS011;3811;49.006;12.076;2023-01-28T08:04:11;12.03;;;7.70;;
7539;SDS011;3811;49.006;12.076;2023-01-28T08:06:38;12.67;;;7.77;;
7539;SDS011;3811;49.006;12.076;2023-01-28T08:09:06;12.60;;;7.67;;
7539;SDS011;3811;49.006;12.076;2023-01-28T08:11:36;12.27;;;7.90;;
7539;SDS011;3811;49.006;12.076;2023-01-28T08:14:04;12.00;;;7.80;;
7539;SDS011;3811;49.006;12.076;2023-01-28T08:16:31;14.00;;;8.10;;
7539;SDS011;3811;49.006;12.076;2023-01-28T08:18:58;12.13;;;7.90;;
7539;SDS011;3811;49.006;12.076;2023-01-28T08:21:28;14.37;;;8.00;;
7539;SDS011;3811;49.006;12.076;2023-01-28T08:23:55;13.63;;;7.67;;
7539;SDS011;3811;49.006;12.076;2023-01-28T08:26:22;15.13;;;8.93;;
7539;SDS011;3811;49.006;12.076;2023-01-28T08:28:50;14.07;;;7.80;;
7539;SDS011;3811;49.006;12.076;2023-01-28T08:31:17;13.43;;;7.70;;
7539;SDS011;3811;49.006;12.076;2023-01-28T08:33:44;14.23;;;8.27;;
7539;SDS011;3811;49.006;12.076;2023-01-28T08:36:12;13.67;;;7.70;;
7539;SDS011;3811;49.006;12.076;2023-01-28T08:38:41;13.87;;;8.20;;
7539;SDS011;3811;49.006;12.076;2023-01-28T08:41:08;14.13;;;8.20;;
7539;SDS011;3811;49.006;12.076;2023-01-28T08:43:35;12.27;;;8.03;;
7539;SDS011;3811;49.006;12.076;2023-01-28T08:46:04;16.80;;;9.17;;
7539;SDS011;3811;49.006;12.076;2023-01-28T08:48:33;14.23;;;8.93;;
7539;SDS011;3811;49.006;12.076;2023-01-28T08:51:02;14.23;;;8.43;;
7539;SDS011;3811;49.006;12.076;2023-01-28T08:53:30;15.63;;;8.50;;
7539;SDS011;3811;49.006;12.076;2023-01-28T08:55:59;13.50;;;7.93;;
7539;SDS011;3811;49.006;12.076;2023-01-28T08:58:27;16.10;;;9.47;;
7539;SDS011;3811;49.006;12.076;2023-01-28T09:00:54;12.90;;;8.60;;
7539;SDS011;3811;49.006;12.076;2023-01-28T09:03:22;16.07;;;8.80;;
7539;SDS011;3811;49.006;12.076;2023-01-28T09:05:49;15.93;;;9.60;;
7539;SDS011;3811;49.006;12.076;2023-01-28T09:08:16;17.00;;;9.90;;
7539;SDS011;3811;49.006;12.076;2023-01-28T09:10:44;15.77;;;9.43;;
7539;SDS011;3811;49.006;12.076;2023-01-28T09:13:13;15.13;;;9.67;;
7539;SDS011;3811;49.006;12.076;2023-01-28T09:15:41;15.73;;;9.33;;
7539;SDS011;3811;49.006;12.076;2023-01-28T09:18:09;14.33;;;8.80;;
7539;SDS011;3811;49.006;12.076;2023-01-28T09:20:36;21.27;;;9.80;;
7539;SDS011;3811;49.006;12.076;2023-01-28T09:23:04;13.37;;;9.20;;
7539;SDS011;3811;49.006;12.076;2023-01-28T09:25:32;15.77;;;9.67;;
7539;SDS011;3811;49.006;12.076;2023-01-28T09:28:00;16.23;;;8.83;;
7539;SDS011;3811;49.006;12.076;2023-01-28T09:30:29;16.30;;;9.53;;
7539;SDS011;3811;49.006;12.076;2023-01-28T09:32:56;16.20;;;9.40;;
7539;SDS011;3811;49.006;12.076;2023-01-28T09:35:24;15.00;;;8.73;;
7539;SDS011;3811;49.006;12.076;2023-01-28T09:37:53;17.30;;;9.13;;
7539;SDS011;3811;49.006;12.076;2023-01-28T09:40:24;14.00;;;9.27;;
7539;SDS011;3811;49.006;12.076;2023-01-28T09:42:56;16.50;;;10.47;;
7539;SDS011;3811;49.006;12.076;2023-01-28T09:45:27;20.40;;;10.87;;
7539;SDS011;3811;49.006;12.076;2023-01-28T09:48:00;17.63;;;9.80;;
7539;SDS011;3811;49.006;12.076;2023-01-28T09:50:30;16.53;;;9.97;;
7539;SDS011;3811;49.006;12.076;2023-01-28T09:53:01;16.97;;;10.60;;
7539;SDS011;3811;49.006;12.076;2023-01-28T09:55:32;15.23;;;8.53;;
7539;SDS011;3811;49.006;12.076;2023-01-28T09:57:59;17.70;;;10.50;;
7539;SDS011;3811;49.006;12.076;2023-01-28T10:00:28;14.57;;;9.50;;
7539;SDS011;3811;49.006;12.076;2023-01-28T10:03:03;16.33;;;10.20;;
7539;SDS011;3811;49.006;12.076;2023-01-28T10:05:48;18.43;;;10.33;;
7539;SDS011;3811;49.006;12.076;2023-01-28T10:08:21;15.47;;;9.00;;
7539;SDS011;3811;49.006;12.076;2023-01-28T10:10:53;17.90;;;10.53;;
7539;SDS011;3811;49.006;12.076;2023-01-28T10:13:29;14.83;;;9.37;;
7539;SDS011;3811;49.006;12.076;2023-01-28T10:16:15;14.77;;;8.90;;
7539;SDS011;3811;49.006;12.076;2023-01-28T10:18:51;16.03;;;8.87;;
7539;SDS011;3811;49.006;12.076;2023-01-28T10:21:23;14.40;;;8.73;;
7539;SDS011;3811;49.006;12.076;2023-01-28T10:23:55;14.13;;;9.10;;
7539;SDS011;3811;49.006;12.076;2023-01-28T10:26:24;12.57;;;9.03;;
7539;SDS011;3811;49.006;12.076;2023-01-28T10:28:55;30.83;;;16.30;;
7539;SDS011;3811;49.006;12.076;2023-01-28T10:31:26;19.43;;;12.30;;
7539;SDS011;3811;49.006;12.076;2023-01-28T10:33:57;18.30;;;11.60;;
7539;SDS011;3811;49.006;12.076;2023-01-28T10:36:26;18.27;;;11.07;;
7539;SDS011;3811;49.006;12.076;2023-01-28T10:38:53;14.60;;;9.93;;
7539;SDS011;3811;49.006;12.076;2023-01-28T10:41:21;14.73;;;9.43;;
7539;SDS011;3811;49.006;12.076;2023-01-28T10:43:50;15.50;;;9.10;;
7539;SDS011;3811;49.006;12.076;2023-01-28T10:46:18;19.73;;;10.73;;
7539;SDS011;3811;49.006;12.076;2023-01-28T10:48:47;15.13;;;9.80;;
7539;SDS011;3811;49.006;12.076;2023-01-28T10:51:29;22.30;;;11.43;;
7539;SDS011;3811;49.006;12.076;2023-01-28T10:53:57;20.23;;;10.20;;
7539;SDS011;3811;49.006;12.076;2023-01-28T10:56:24;18.23;;;10.33;;
7539;SDS011;3811;49.006;12.076;2023-01-28T10:58:56;16.33;;;9.70;;
7539;SDS011;3811;49.006;12.076;2023-01-28T11:01:24;15.97;;;9.83;;
7539;SDS011;3811;49.006;12.076;2023-01-28T11:03:53;14.17;;;8.67;;
7539;SDS011;3811;49.006;12.076;2023-01-28T11:06:22;18.37;;;10.37;;
7539;SDS011;3811;49.006;12.076;2023-01-28T11:08:51;16.37;;;9.57;;
7539;SDS011;3811;49.006;12.076;2023-01-28T11:11:21;18.03;;;10.63;;
7539;SDS011;3811;49.006;12.076;2023-01-28T11:13:51;17.03;;;10.83;;
7539;SDS011;3811;49.006;12.076;2023-01-28T11:16:22;15.63;;;9.80;;
7539;SDS011;3811;49.006;12.076;2023-01-28T11:18:51;15.87;;;10.67;;
7539;SDS011;3811;49.006;12.076;2023-01-28T11:21:20;17.40;;;9.70;;
7539;SDS011;3811;49.006;12.076;2023-01-28T11:23:48;19.03;;;10.87;;
7539;SDS011;3811;49.006;12.076;2023-01-28T11:26:18;16.03;;;10.10;;
7539;SDS011;3811;49.006;12.076;2023-01-28T11:28:46;16.40;;;10.30;;
7539;SDS011;3811;49.006;12.076;2023-01-28T11:31:14;18.30;;;10.03;;
7539;SDS011;3811;49.006;12.076;2023-01-28T11:33:43;15.83;;;9.63;;
7539;SDS011;3811;49.006;12.076;2023-01-28T11:36:15;18.93;;;11.40;;
7539;SDS011;3811;49.006;12.076;2023-01-28T11:38:51;17.43;;;10.87;;
7539;SDS011;3811;49.006;12.076;2023-01-28T11:41:24;17.63;;;10.60;;
7539;SDS011;3811;49.006;12.076;2023-01-28T11:43:53;18.33;;;10.97;;
7539;SDS011;3811;49.006;12.076;2023-01-28T11:46:35;18.30;;;10.93;;
7539;SDS011;3811;49.006;12.076;2023-01-28T11:49:14;15.30;;;9.13;;
7539;SDS011;3811;49.006;12.076;2023-01-28T11:51:50;20.63;;;10.13;;
7539;SDS011;3811;49.006;12.076;2023-01-28T11:54:26;14.27;;;9.17;;
7539;SDS011;3811;49.006;12.076;2023-01-28T11:57:03;16.53;;;9.57;;
7539;SDS011;3811;49.006;12.076;2023-01-28T11:59:37;19.17;;;10.20;;
7539;SDS011;3811;49.006;12.076;2023-01-28T12:02:23;16.00;;;9.13;;
7539;SDS011;3811;49.006;12.076;2023-01-28T12:04:55;17.13;;;8.83;;
7539;SDS011;3811;49.006;12.076;2023-01-28T12:07:31;16.40;;;9.27;;
7539;SDS011;3811;49.006;12.076;2023-01-28T12:10:02;13.40;;;8.47;;
7539;SDS011;3811;49.006;12.076;2023-01-28T12:15:46;15.60;;;8.90;;
7539;SDS011;3811;49.006;12.076;2023-01-28T12:18:28;13.20;;;8.23;;
7539;SDS011;3811;49.006;12.076;2023-01-28T12:21:00;13.20;;;8.57;;
7539;SDS011;3811;49.006;12.076;2023-01-28T12:23:42;14.23;;;8.57;;
7539;SDS011;3811;49.006;12.076;2023-01-28T12:26:19;13.73;;;8.50;;
7539;SDS011;3811;49.006;12.076;2023-01-28T12:29:03;13.80;;;8.47;;
7539;SDS011;3811;49.006;12.076;2023-01-28T12:34:50;12.83;;;7.90;;
7539;SDS011;3811;49.006;12.076;2023-01-28T12:37:24;12.93;;;8.60;;
7539;SDS011;3811;49.006;12.076;2023-01-28T12:39:58;14.83;;;8.43;;
7539;SDS011;3811;49.006;12.076;2023-01-28T12:42:39;12.73;;;8.60;;
7539;SDS011;3811;49.006;12.076;2023-01-28T12:45:11;12.53;;;7.67;;
7539;SDS011;3811;49.006;12.076;2023-01-28T12:47:42;15.10;;;7.93;;
7539;SDS011;3811;49.006;12.076;2023-01-28T12:50:16;16.47;;;9.50;;
7539;SDS011;3811;49.006;12.076;2023-01-28T12:52:46;12.73;;;8.37;;
7539;SDS011;3811;49.006;12.076;2023-01-28T12:55:19;14.00;;;8.83;;
7539;SDS011;3811;49.006;12.076;2023-01-28T12:57:55;13.70;;;7.73;;
7539;SDS011;3811;49.006;12.076;2023-01-28T13:00:24;11.87;;;7.83;;
7539;SDS011;3811;49.006;12.076;2023-01-28T13:02:56;15.30;;;8.07;;
7539;SDS011;3811;49.006;12.076;2023-01-28T13:05:32;14.13;;;9.30;;
7539;SDS011;3811;49.006;12.076;2023-01-28T13:08:01;10.70;;;7.37;;
7539;SDS011;3811;49.006;12.076;2023-01-28T13:10:33;12.50;;;7.83;;
7539;SDS011;3811;49.006;12.076;2023-01-28T13:13:02;10.93;;;8.23;;
7539;SDS011;3811;49.006;12.076;2023-01-28T13:15:30;11.17;;;7.33;;
7539;SDS011;3811;49.006;12.076;2023-01-28T13:18:04;12.73;;;7.53;;
7539;SDS011;3811;49.006;12.076;2023-01-28T13:20:35;12.73;;;8.40;;
7539;SDS011;3811;49.006;12.076;2023-01-28T13:23:05;11.20;;;7.33;;
7539;SDS011;3811;49.006;12.076;2023-01-28T13:25:33;11.20;;;7.27;;
7539;SDS011;3811;49.006;12.076;2023-01-28T13:28:00;12.03;;;7.60;;
7539;SDS011;3811;49.006;12.076;2023-01-28T13:30:29;10.17;;;7.27;;
7539;SDS011;3811;49.006;12.076;2023-01-28T13:32:58;9.90;;;6.40;;
7539;SDS011;3811;49.006;12.076;2023-01-28T13:35:29;12.43;;;7.90;;
7539;SDS011;3811;49.006;12.076;2023-01-28T13:37:58;9.07;;;6.40;;
7539;SDS011;3811;49.006;12.076;2023-01-28T13:40:26;8.93;;;6.13;;
7539;SDS011;3811;49.006;12.076;2023-01-28T13:42:59;8.10;;;6.13;;
7539;SDS011;3811;49.006;12.076;2023-01-28T13:45:27;6.73;;;5.70;;
7539;SDS011;3811;49.006;12.076;2023-01-28T13:47:56;8.10;;;6.00;;
7539;SDS011;3811;49.006;12.076;2023-01-28T13:50:32;7.30;;;5.80;;
7539;SDS011;3811;49.006;12.076;2023-01-28T13:53:03;6.83;;;5.17;;
7539;SDS011;3811;49.006;12.076;2023-01-28T13:55:41;7.00;;;6.20;;
7539;SDS011;3811;49.006;12.076;2023-01-28T14:07:11;6.90;;;5.47;;
7539;SDS011;3811;49.006;12.076;2023-01-28T14:09:54;7.97;;;5.80;;
7539;SDS011;3811;49.006;12.076;2023-01-28T14:18:11;7.43;;;5.57;;
7539;SDS011;3811;49.006;12.076;2023-01-28T14:20:42;8.67;;;5.80;;
7539;SDS011;3811;49.006;12.076;2023-01-28T14:23:15;6.03;;;5.07;;
7539;SDS011;3811;49.006;12.076;2023-01-28T14:25:47;7.97;;;5.50;;
7539;SDS011;3811;49.006;12.076;2023-01-28T14:28:19;8.30;;;5.73;;
7539;SDS011;3811;49.006;12.076;2023-01-28T14:30:52;7.20;;;5.20;;
7539;SDS011;3811;49.006;12.076;2023-01-28T14:33:20;7.27;;;5.10;;
7539;SDS011;3811;49.006;12.076;2023-01-28T14:35:49;6.20;;;5.13;;
7539;SDS011;3811;49.006;12.076;2023-01-28T14:38:18;6.97;;;5.00;;
7539;SDS011;3811;49.006;12.076;2023-01-28T14:40:47;6.40;;;5.10;;
7539;SDS011;3811;49.006;12.076;2023-01-28T14:43:17;7.63;;;5.33;;
7539;SDS011;3811;49.006;12.076;2023-01-28T14:45:54;7.30;;;4.93;;
7539;SDS011;3811;49.006;12.076;2023-01-28T14:48:32;6.57;;;4.97;;
7539;SDS011;3811;49.006;12.076;2023-01-28T14:51:11;6.50;;;4.77;;
7539;SDS011;3811;49.006;12.076;2023-01-28T14:54:03;5.43;;;4.93;;
7539;SDS011;3811;49.006;12.076;2023-01-28T14:56:49;6.47;;;4.57;;
7539;SDS011;3811;49.006;12.076;2023-01-28T14:59:21;6.93;;;5.07;;
7539;SDS011;3811;49.006;12.076;2023-01-28T15:01:53;6.47;;;5.23;;
7539;SDS011;3811;49.006;12.076;2023-01-28T15:04:22;6.33;;;4.83;;
7539;SDS011;3811;49.006;12.076;2023-01-28T15:06:50;9.47;;;6.03;;
7539;SDS011;3811;49.006;12.076;2023-01-28T15:09:20;8.93;;;5.53;;
7539;SDS011;3811;49.006;12.076;2023-01-28T15:11:48;7.30;;;5.13;;
7539;SDS011;3811;49.006;12.076;2023-01-28T15:14:20;7.83;;;5.63;;
7539;SDS011;3811;49.006;12.076;2023-01-28T15:16:49;6.50;;;5.07;;
7539;SDS011;3811;49.006;12.076;2023-01-28T15:19:16;7.33;;;4.80;;
7539;SDS011;3811;49.006;12.076;2023-01-28T15:21:47;4.53;;;4.10;;
7539;SDS011;3811;49.006;12.076;2023-01-28T15:24:19;4.73;;;3.73;;
7539;SDS011;3811;49.006;12.076;2023-01-28T15:26:46;5.77;;;4.87;;
7539;SDS011;3811;49.006;12.076;2023-01-28T15:29:23;6.40;;;4.83;;
7539;SDS011;3811;49.006;12.076;2023-01-28T15:31:51;8.33;;;5.20;;
7539;SDS011;3811;49.006;12.076;2023-01-28T15:34:19;5.83;;;4.60;;
7539;SDS011;3811;49.006;12.076;2023-01-28T15:36:47;6.60;;;4.50;;
7539;SDS011;3811;49.006;12.076;2023-01-28T15:39:16;6.13;;;4.37;;